createdAt,value
2019-05-13T00:01:55.365Z,2.70
2019-05-13T00:04:00.298Z,2.80
2019-05-13T00:06:05.513Z,2.70
2019-05-13T00:08:13.926Z,2.77
2019-05-13T00:10:24.198Z,2.87
2019-05-13T00:12:28.835Z,3.07
2019-05-13T00:14:34.660Z,3.07
2019-05-13T00:16:44.692Z,2.67
2019-05-13T00:18:49.573Z,2.57
2019-05-13T00:20:55.846Z,3.00
2019-05-13T00:23:03.900Z,2.17
2019-05-13T00:25:14.296Z,2.70
2019-05-13T00:27:19.967Z,2.63
2019-05-13T00:29:24.746Z,2.43
2019-05-13T00:31:30.160Z,2.67
2019-05-13T00:33:35.731Z,2.70
2019-05-13T00:35:41.494Z,2.70
2019-05-13T00:37:47.840Z,2.50
2019-05-13T00:39:54.327Z,2.67
2019-05-13T00:42:01.226Z,2.43
2019-05-13T00:44:06.776Z,2.47
2019-05-13T00:46:14.186Z,2.90
2019-05-13T00:48:19.872Z,2.30
2019-05-13T00:50:25.716Z,2.40
2019-05-13T00:52:33.933Z,2.30
2019-05-13T00:54:44.033Z,2.50
2019-05-13T00:56:50.624Z,2.77
2019-05-13T00:58:55.688Z,2.40
2019-05-13T01:01:00.718Z,2.17
2019-05-13T01:03:05.535Z,2.50
2019-05-13T01:05:10.615Z,2.13
2019-05-13T01:07:25.905Z,1.90
2019-05-13T01:09:24.728Z,2.67
2019-05-13T01:11:30.827Z,2.37
2019-05-13T01:13:37.998Z,2.27
2019-05-13T01:15:44.267Z,2.40
2019-05-13T01:17:53.516Z,2.50
2019-05-13T01:19:59.833Z,2.27
2019-05-13T01:22:05.549Z,2.50
2019-05-13T01:24:14.625Z,2.20
2019-05-13T01:26:20.635Z,2.40
2019-05-13T01:28:25.651Z,2.40
2019-05-13T01:30:34.733Z,2.10
2019-05-13T01:32:44.636Z,2.50
2019-05-13T01:34:49.506Z,2.77
2019-05-13T01:36:56.715Z,2.40
2019-05-13T01:39:01.441Z,2.10
2019-05-13T01:41:08.413Z,2.40
2019-05-13T01:43:14.607Z,2.40
2019-05-13T01:45:20.706Z,3.10
2019-05-13T01:47:25.595Z,2.60
2019-05-13T01:49:33.464Z,2.40
2019-05-13T01:51:38.717Z,2.40
2019-05-13T01:53:44.153Z,2.77
2019-05-13T01:55:53.241Z,2.20
2019-05-13T01:57:58.131Z,2.37
2019-05-13T02:00:05.139Z,2.07
2019-05-13T02:02:11.179Z,2.20
2019-05-13T02:04:20.398Z,2.10
2019-05-13T02:06:28.536Z,2.50
2019-05-13T02:08:34.140Z,2.27
2019-05-13T02:10:58.019Z,2.17
2019-05-13T02:13:04.000Z,1.90
2019-05-13T02:15:08.975Z,1.97
2019-05-13T02:17:14.625Z,2.03
2019-05-13T02:19:20.565Z,2.20
2019-05-13T02:21:26.536Z,1.93
2019-05-13T02:23:33.989Z,2.13
2019-05-13T02:25:39.096Z,2.30
2019-05-13T02:27:45.112Z,2.00
2019-05-13T02:29:50.228Z,1.80
2019-05-13T02:31:57.161Z,2.03
2019-05-13T02:34:04.247Z,1.97
2019-05-13T02:36:13.199Z,2.20
2019-05-13T02:38:24.706Z,2.07
2019-05-13T02:40:28.507Z,2.23
2019-05-13T02:42:33.462Z,2.00
2019-05-13T02:44:39.713Z,2.13
2019-05-13T02:46:46.482Z,2.03
2019-05-13T02:48:52.907Z,2.17
2019-05-13T02:50:59.176Z,1.90
2019-05-13T02:53:03.875Z,2.03
2019-05-13T02:55:12.053Z,2.10
2019-05-13T02:57:16.393Z,1.93
2019-05-13T02:59:22.846Z,1.80
2019-05-13T03:01:28.228Z,1.93
2019-05-13T03:03:34.571Z,2.20
2019-05-13T03:05:42.847Z,2.53
2019-05-13T03:07:48.737Z,2.07
2019-05-13T03:09:53.822Z,2.07
2019-05-13T03:11:58.656Z,1.90
2019-05-13T03:14:03.977Z,2.00
2019-05-13T03:16:19.045Z,1.97
2019-05-13T03:18:24.995Z,2.10
2019-05-13T03:20:33.339Z,2.67
2019-05-13T03:22:43.102Z,2.03
2019-05-13T03:24:48.214Z,2.13
2019-05-13T03:26:53.562Z,2.07
2019-05-13T03:29:02.532Z,1.90
2019-05-13T03:31:07.969Z,2.03
2019-05-13T03:33:19.015Z,1.90
2019-05-13T03:35:26.565Z,1.80
2019-05-13T03:37:28.885Z,1.70
2019-05-13T03:39:34.377Z,1.80
2019-05-13T03:41:42.264Z,1.83
2019-05-13T03:43:47.805Z,2.43
2019-05-13T03:45:52.852Z,1.80
2019-05-13T03:48:03.758Z,2.00
2019-05-13T03:50:07.960Z,1.57
2019-05-13T03:52:13.697Z,1.70
2019-05-13T03:54:22.396Z,1.80
2019-05-13T03:56:27.529Z,1.83
2019-05-13T03:58:37.692Z,2.00
2019-05-13T04:00:42.897Z,2.10
2019-05-13T04:02:52.091Z,1.83
2019-05-13T04:05:04.132Z,1.93
2019-05-13T04:07:08.771Z,1.50
2019-05-13T04:09:25.514Z,1.60
2019-05-13T04:11:22.837Z,1.80
2019-05-13T04:13:33.128Z,1.57
2019-05-13T04:15:38.005Z,1.60
2019-05-13T04:17:43.648Z,1.90
2019-05-13T04:19:48.690Z,1.83
2019-05-13T04:21:54.725Z,1.73
2019-05-13T04:24:03.947Z,1.83
2019-05-13T04:26:14.641Z,1.60
2019-05-13T04:28:18.576Z,1.70
2019-05-13T04:30:25.774Z,2.10
2019-05-13T04:32:33.551Z,1.63
2019-05-13T04:34:41.566Z,1.97
2019-05-13T04:36:47.238Z,1.70
2019-05-13T04:38:54.209Z,1.90
2019-05-13T04:41:03.413Z,1.90
2019-05-13T04:43:08.385Z,1.87
2019-05-13T04:45:14.549Z,2.00
2019-05-13T04:47:22.949Z,1.80
2019-05-13T04:49:27.650Z,1.80
2019-05-13T04:51:33.589Z,2.00
2019-05-13T04:53:42.504Z,1.90
2019-05-13T04:55:48.826Z,1.80
2019-05-13T04:57:58.173Z,2.03
2019-05-13T05:00:05.794Z,1.90
2019-05-13T05:02:49.467Z,2.00
2019-05-13T05:05:03.329Z,2.03
2019-05-13T05:07:34.577Z,1.90
2019-05-13T05:10:30.341Z,2.00
2019-05-13T05:13:05.187Z,2.13
2019-05-13T05:15:41.593Z,2.07
2019-05-13T05:18:22.101Z,1.90
2019-05-13T05:20:38.207Z,1.93
2019-05-13T05:23:22.608Z,1.63
2019-05-13T05:26:08.273Z,2.30
2019-05-13T05:28:41.642Z,1.60
2019-05-13T05:31:14.976Z,2.20
2019-05-13T05:33:41.184Z,2.23
2019-05-13T05:36:01.810Z,1.97
2019-05-13T05:38:33.910Z,1.97
2019-05-13T05:40:39.602Z,1.70
2019-05-13T05:42:45.718Z,2.07
2019-05-13T05:44:56.985Z,2.03
2019-05-13T05:47:05.477Z,1.93
2019-05-13T05:49:12.982Z,1.90
2019-05-13T05:51:21.962Z,2.60
2019-05-13T05:53:27.842Z,2.10
2019-05-13T05:55:35.147Z,1.73
2019-05-13T05:57:43.629Z,1.90
2019-05-13T05:59:51.069Z,1.70
2019-05-13T06:02:01.705Z,2.00
2019-05-13T06:04:08.518Z,1.83
2019-05-13T06:06:16.152Z,1.73
2019-05-13T06:08:24.399Z,1.80
2019-05-13T06:10:44.197Z,2.13
2019-05-13T06:12:38.241Z,1.77
2019-05-13T06:14:45.168Z,2.07
2019-05-13T06:16:51.912Z,1.70
2019-05-13T06:19:01.478Z,2.03
2019-05-13T06:21:08.527Z,2.10
2019-05-13T06:23:14.971Z,1.77
2019-05-13T06:25:23.674Z,1.60
2019-05-13T06:27:31.775Z,1.57
2019-05-13T06:29:38.523Z,1.80
2019-05-13T06:31:45.824Z,1.70
2019-05-13T06:33:52.798Z,1.70
2019-05-13T06:36:01.036Z,1.50
2019-05-13T06:38:07.707Z,1.70
2019-05-13T06:40:13.772Z,1.70
2019-05-13T06:42:22.273Z,1.83
2019-05-13T06:44:27.984Z,2.00
2019-05-13T06:46:36.016Z,1.57
2019-05-13T06:48:42.750Z,1.63
2019-05-13T06:50:51.928Z,1.60
2019-05-13T06:53:01.570Z,1.67
2019-05-13T06:55:07.916Z,1.43
2019-05-13T06:57:13.752Z,1.77
2019-05-13T06:59:22.330Z,1.60
2019-05-13T07:01:32.381Z,1.60
2019-05-13T07:03:38.623Z,1.53
2019-05-13T07:05:45.747Z,1.47
2019-05-13T07:07:52.144Z,1.60
2019-05-13T07:09:58.710Z,1.40
2019-05-13T07:12:06.833Z,1.73
2019-05-13T07:14:14.124Z,1.60
2019-05-13T07:16:22.386Z,1.50
2019-05-13T07:18:28.772Z,1.80
2019-05-13T07:20:34.625Z,1.50
2019-05-13T07:22:42.476Z,1.70
2019-05-13T07:24:48.316Z,1.37
2019-05-13T07:26:58.332Z,1.37
2019-05-13T07:29:06.274Z,1.43
2019-05-13T07:31:12.599Z,1.50
2019-05-13T07:33:21.198Z,1.30
2019-05-13T07:35:36.345Z,1.53
2019-05-13T07:37:43.918Z,1.87
2019-05-13T07:39:49.732Z,1.60
2019-05-13T07:41:55.424Z,1.70
2019-05-13T07:44:02.581Z,1.80
2019-05-13T07:46:07.459Z,1.73
2019-05-13T07:48:21.263Z,2.00
2019-05-13T07:50:24.203Z,1.40
2019-05-13T07:52:31.972Z,1.47
2019-05-13T07:54:38.660Z,1.40
2019-05-13T07:56:45.379Z,1.60
2019-05-13T07:58:52.921Z,1.80
2019-05-13T08:01:02.403Z,1.70
2019-05-13T08:03:09.040Z,1.60
2019-05-13T08:05:15.753Z,1.60
2019-05-13T08:07:22.789Z,1.60
2019-05-13T08:09:31.999Z,2.10
2019-05-13T08:11:56.100Z,1.83
2019-05-13T08:13:48.466Z,1.73
2019-05-13T08:15:54.721Z,1.80
2019-05-13T08:18:06.535Z,2.03
2019-05-13T08:20:13.493Z,1.70
2019-05-13T08:22:21.823Z,1.60
2019-05-13T08:24:26.823Z,1.67
2019-05-13T08:26:37.979Z,1.90
2019-05-13T08:28:56.943Z,1.73
2019-05-13T08:30:51.818Z,1.90
2019-05-13T08:33:01.806Z,1.70
2019-05-13T08:35:12.539Z,1.80
2019-05-13T08:37:21.696Z,1.70
2019-05-13T08:39:33.381Z,1.67
2019-05-13T08:41:36.242Z,1.53
2019-05-13T08:43:44.961Z,1.80
2019-05-13T08:45:55.826Z,1.70
2019-05-13T08:48:01.980Z,1.83
2019-05-13T08:50:08.355Z,1.60
2019-05-13T08:52:13.659Z,1.97
2019-05-13T08:54:22.032Z,1.93
2019-05-13T08:56:32.558Z,1.63
2019-05-13T08:58:38.408Z,1.50
2019-05-13T09:00:53.358Z,1.80
2019-05-13T09:03:06.218Z,1.60
2019-05-13T09:05:12.148Z,1.70
2019-05-13T09:07:20.737Z,1.67
2019-05-13T09:09:26.022Z,2.07
2019-05-13T09:11:32.426Z,1.70
2019-05-13T09:13:38.753Z,1.80
2019-05-13T09:15:45.998Z,1.83
2019-05-13T09:17:54.217Z,1.53
2019-05-13T09:20:02.814Z,1.70
2019-05-13T09:22:13.189Z,1.90
2019-05-13T09:24:28.986Z,1.30
2019-05-13T09:26:26.812Z,1.87
2019-05-13T09:28:34.304Z,1.67
2019-05-13T09:30:42.383Z,1.53
2019-05-13T09:32:51.422Z,1.80
2019-05-13T09:34:58.995Z,1.57
2019-05-13T09:37:06.802Z,1.63
2019-05-13T09:39:13.281Z,1.60
2019-05-13T09:41:21.443Z,1.30
2019-05-13T09:43:31.328Z,1.67
2019-05-13T09:45:41.812Z,1.60
2019-05-13T09:47:52.426Z,1.90
2019-05-13T09:50:00.202Z,1.60
2019-05-13T09:52:06.930Z,1.83
2019-05-13T09:54:12.731Z,1.50
2019-05-13T09:56:19.055Z,1.67
2019-05-13T09:58:30.445Z,1.43
2019-05-13T10:00:35.610Z,1.70
2019-05-13T10:02:44.073Z,1.40
2019-05-13T10:04:51.687Z,1.50
2019-05-13T10:07:03.864Z,1.80
2019-05-13T10:09:12.584Z,1.60
2019-05-13T10:11:18.710Z,1.50
2019-05-13T10:13:25.341Z,1.40
2019-05-13T10:15:32.592Z,1.37
2019-05-13T10:17:38.873Z,1.50
2019-05-13T10:19:45.451Z,1.67
2019-05-13T10:21:52.675Z,1.60
2019-05-13T10:23:58.862Z,1.47
2019-05-13T10:26:13.914Z,1.80
2019-05-13T10:28:22.077Z,1.90
2019-05-13T10:30:31.653Z,1.63
2019-05-13T10:32:38.840Z,1.73
2019-05-13T10:34:45.489Z,1.50
2019-05-13T10:36:51.774Z,1.60
2019-05-13T10:39:01.423Z,1.70
2019-05-13T10:41:11.949Z,1.70
2019-05-13T10:43:30.898Z,1.40
2019-05-13T10:45:28.093Z,1.40
2019-05-13T10:47:34.655Z,1.70
2019-05-13T10:49:42.462Z,1.63
2019-05-13T10:51:52.422Z,1.70
2019-05-13T10:53:59.709Z,1.50
2019-05-13T10:56:09.874Z,1.90
2019-05-13T10:58:15.382Z,1.80
2019-05-13T11:00:33.694Z,1.50
2019-05-13T11:02:42.420Z,1.67
2019-05-13T11:04:48.822Z,1.60
2019-05-13T11:06:55.119Z,1.47
2019-05-13T11:09:02.766Z,1.73
2019-05-13T11:11:09.329Z,1.57
2019-05-13T11:13:16.721Z,1.33
2019-05-13T11:15:24.153Z,2.13
2019-05-13T11:17:33.055Z,1.50
2019-05-13T11:19:39.494Z,1.80
2019-05-13T11:21:50.649Z,1.57
2019-05-13T11:23:54.311Z,1.60
2019-05-13T11:26:03.090Z,1.53
2019-05-13T11:28:12.295Z,1.70
2019-05-13T11:30:22.845Z,1.63
2019-05-13T11:32:31.720Z,1.50
2019-05-13T11:34:41.918Z,1.60
2019-05-13T11:36:52.835Z,1.50
2019-05-13T11:39:02.411Z,1.70
2019-05-13T11:41:08.411Z,1.40
2019-05-13T11:43:16.976Z,1.67
2019-05-13T11:45:26.212Z,1.40
2019-05-13T11:47:34.207Z,1.70
2019-05-13T11:49:43.033Z,1.60
2019-05-13T11:51:51.696Z,1.80
2019-05-13T11:54:01.758Z,1.33
2019-05-13T11:56:07.741Z,1.80
2019-05-13T11:58:15.184Z,1.30
2019-05-13T12:01:02.593Z,1.60
2019-05-13T12:03:11.784Z,1.50
2019-05-13T12:05:22.580Z,1.60
2019-05-13T12:07:32.932Z,1.77
2019-05-13T12:09:38.959Z,1.50
2019-05-13T12:11:45.312Z,1.63
2019-05-13T12:13:52.745Z,1.73
2019-05-13T12:16:03.603Z,1.70
2019-05-13T12:18:12.633Z,1.50
2019-05-13T12:20:20.002Z,1.63
2019-05-13T12:22:26.900Z,1.67
2019-05-13T12:24:34.094Z,1.37
2019-05-13T12:26:53.306Z,1.50
2019-05-13T12:29:02.554Z,1.60
2019-05-13T12:31:12.033Z,1.60
2019-05-13T12:33:17.630Z,1.53
2019-05-13T12:35:25.419Z,1.70
2019-05-13T12:37:33.428Z,1.43
2019-05-13T12:39:43.014Z,1.67
2019-05-13T12:41:53.497Z,1.40
2019-05-13T12:43:58.064Z,1.40
2019-05-13T12:46:05.011Z,1.50
2019-05-13T12:48:14.093Z,1.40
2019-05-13T12:50:23.304Z,1.90
2019-05-13T12:52:28.295Z,1.50
2019-05-13T12:54:35.277Z,1.67
2019-05-13T12:56:44.506Z,1.70
2019-05-13T12:58:52.267Z,1.47
2019-05-13T13:01:01.489Z,1.50
2019-05-13T13:03:13.365Z,1.50
2019-05-13T13:05:23.340Z,1.30
2019-05-13T13:07:28.104Z,1.40
2019-05-13T13:09:34.275Z,1.50
2019-05-13T13:11:43.479Z,1.47
2019-05-13T13:13:58.868Z,1.67
2019-05-13T13:16:03.252Z,1.40
2019-05-13T13:18:08.219Z,1.30
2019-05-13T13:20:17.073Z,1.50
2019-05-13T13:22:25.347Z,1.50
2019-05-13T13:24:34.393Z,1.53
2019-05-13T13:26:42.997Z,1.67
2019-05-13T13:28:55.897Z,1.50
2019-05-13T13:31:03.804Z,1.43
2019-05-13T13:33:15.136Z,1.53
2019-05-13T13:35:21.795Z,1.30
2019-05-13T13:37:33.674Z,1.50
2019-05-13T13:39:42.247Z,1.30
2019-05-13T13:41:48.831Z,1.40
2019-05-13T13:44:04.656Z,1.60
2019-05-13T13:46:25.263Z,1.50
2019-05-13T13:48:24.935Z,1.50
2019-05-13T13:50:33.282Z,1.40
2019-05-13T13:52:36.841Z,1.53
2019-05-13T13:54:44.403Z,1.30
2019-05-13T13:56:56.017Z,1.27
2019-05-13T13:59:04.649Z,1.50
2019-05-13T14:01:19.935Z,1.67
2019-05-13T14:03:22.730Z,1.40
2019-05-13T14:05:29.477Z,1.20
2019-05-13T14:07:42.394Z,1.30
2019-05-13T14:09:55.610Z,1.60
2019-05-13T14:12:02.209Z,1.60
2019-05-13T14:14:13.970Z,1.67
2019-05-13T14:16:30.597Z,1.40
2019-05-13T14:18:34.707Z,1.60
2019-05-13T14:20:45.814Z,1.40
2019-05-13T14:22:58.047Z,1.80
2019-05-13T14:25:07.059Z,1.40
2019-05-13T14:27:14.487Z,1.60
2019-05-13T14:29:36.311Z,2.07
2019-05-13T14:31:32.382Z,1.50
2019-05-13T14:33:42.643Z,1.53
2019-05-13T14:35:53.099Z,1.50
2019-05-13T14:38:05.256Z,1.77
2019-05-13T14:40:22.417Z,1.50
2019-05-13T14:42:32.217Z,1.70
2019-05-13T14:44:40.644Z,1.50
2019-05-13T14:46:52.338Z,1.53
2019-05-13T14:49:04.481Z,1.60
2019-05-13T14:51:14.321Z,1.47
2019-05-13T14:53:26.261Z,1.30
2019-05-13T14:55:36.238Z,1.50
2019-05-13T14:57:52.850Z,1.47
2019-05-13T15:00:02.675Z,1.87
2019-05-13T15:02:12.139Z,1.30
2019-05-13T15:04:41.772Z,1.47
2019-05-13T15:06:41.613Z,1.70
2019-05-13T15:08:52.710Z,1.40
2019-05-13T15:11:01.976Z,1.23
2019-05-13T15:13:22.998Z,1.50
2019-05-13T15:15:33.960Z,1.50
2019-05-13T15:17:46.761Z,1.30
2019-05-13T15:19:56.893Z,1.90
2019-05-13T15:22:03.006Z,1.37
2019-05-13T15:24:12.332Z,1.50
2019-05-13T15:26:18.914Z,1.60
2019-05-13T15:28:25.464Z,1.40
2019-05-13T15:30:31.670Z,1.40
2019-05-13T15:32:38.429Z,1.43
2019-05-13T15:34:45.430Z,1.57
2019-05-13T15:36:51.937Z,1.43
2019-05-13T15:38:58.513Z,1.60
2019-05-13T15:41:05.356Z,1.63
2019-05-13T15:43:11.661Z,1.50
2019-05-13T15:45:21.281Z,1.20
2019-05-13T15:47:30.372Z,1.70
2019-05-13T15:49:39.057Z,1.60
2019-05-13T15:51:48.080Z,1.50
2019-05-13T15:54:02.470Z,1.60
2019-05-13T15:56:18.571Z,1.50
2019-05-13T15:58:38.383Z,1.47
2019-05-13T16:00:32.338Z,1.53
2019-05-13T16:02:38.339Z,1.30
2019-05-13T16:04:52.631Z,1.30
2019-05-13T16:06:53.084Z,1.40
2019-05-13T16:09:02.901Z,1.47
2019-05-13T16:11:09.671Z,1.73
2019-05-13T16:13:22.256Z,1.10
2019-05-13T16:15:28.996Z,1.30
2019-05-13T16:17:42.225Z,1.60
2019-05-13T16:19:53.386Z,1.63
2019-05-13T16:22:01.209Z,1.40
2019-05-13T16:24:11.729Z,1.60
2019-05-13T16:26:15.808Z,1.50
2019-05-13T16:28:22.159Z,1.80
2019-05-13T16:30:28.484Z,1.20
2019-05-13T16:32:36.280Z,1.50
2019-05-13T16:34:42.684Z,1.50
2019-05-13T16:36:52.847Z,1.50
2019-05-13T16:39:12.108Z,1.60
2019-05-13T16:41:22.310Z,1.60
2019-05-13T16:43:34.004Z,1.50
2019-05-13T16:45:42.318Z,1.30
2019-05-13T16:47:57.243Z,1.40
2019-05-13T16:50:02.961Z,1.30
2019-05-13T16:52:14.245Z,1.23
2019-05-13T16:54:23.446Z,1.60
2019-05-13T16:56:33.425Z,1.80
2019-05-13T16:58:54.686Z,1.50
2019-05-13T17:01:02.517Z,1.40
2019-05-13T17:03:32.293Z,1.40
2019-05-13T17:05:47.548Z,2.00
2019-05-13T17:08:02.258Z,1.60
2019-05-13T17:10:51.557Z,1.87
2019-05-13T17:13:11.519Z,1.40
2019-05-13T17:15:31.877Z,1.53
2019-05-13T17:18:17.863Z,1.40
2019-05-13T17:20:35.959Z,1.63
2019-05-13T17:22:43.344Z,1.63
2019-05-13T17:24:48.778Z,1.50
2019-05-13T17:26:57.312Z,1.20
2019-05-13T17:29:05.402Z,1.80
2019-05-13T17:31:13.111Z,1.60
2019-05-13T17:33:22.994Z,1.80
2019-05-13T17:35:28.334Z,1.77
2019-05-13T17:37:37.028Z,1.83
2019-05-13T17:39:43.363Z,2.10
2019-05-13T17:41:54.257Z,1.90
2019-05-13T17:44:02.430Z,2.27
2019-05-13T17:46:11.916Z,1.80
2019-05-13T17:48:26.752Z,2.30
2019-05-13T17:50:28.410Z,2.40
2019-05-13T17:52:34.339Z,2.30
2019-05-13T17:54:44.079Z,2.20
2019-05-13T17:56:53.944Z,2.40
2019-05-13T17:59:02.144Z,2.30
2019-05-13T18:01:21.089Z,2.30
2019-05-13T18:03:43.416Z,2.20
2019-05-13T18:06:03.114Z,2.67
2019-05-13T18:08:11.309Z,2.37
2019-05-13T18:10:18.980Z,2.37
2019-05-13T18:12:28.119Z,2.43
2019-05-13T18:14:41.449Z,2.30
2019-05-13T18:16:51.326Z,2.37
2019-05-13T18:18:59.645Z,2.00
2019-05-13T18:21:06.981Z,2.10
2019-05-13T18:23:13.383Z,2.50
2019-05-13T18:25:22.327Z,2.30
2019-05-13T18:27:28.367Z,2.60
2019-05-13T18:29:36.739Z,2.77
2019-05-13T18:31:42.823Z,2.67
2019-05-13T18:33:51.121Z,3.80
2019-05-13T18:35:57.258Z,2.83
2019-05-13T18:38:03.743Z,3.70
2019-05-13T18:40:12.462Z,3.50
2019-05-13T18:42:22.330Z,3.33
2019-05-13T18:44:31.679Z,3.70
2019-05-13T18:46:37.911Z,3.13
2019-05-13T18:48:58.156Z,3.40
2019-05-13T18:50:54.664Z,3.63
2019-05-13T18:53:02.250Z,3.47
2019-05-13T18:55:12.490Z,3.53
2019-05-13T18:57:21.189Z,3.27
2019-05-13T18:59:26.252Z,4.03
2019-05-13T19:01:33.549Z,3.33
2019-05-13T19:03:41.445Z,3.70
2019-05-13T19:05:52.192Z,4.10
2019-05-13T19:08:01.808Z,3.23
2019-05-13T19:10:08.822Z,3.23
2019-05-13T19:12:16.227Z,3.13
2019-05-13T19:14:24.444Z,3.40
2019-05-13T19:16:33.192Z,3.33
2019-05-13T19:18:42.109Z,3.57
2019-05-13T19:20:52.401Z,3.10
2019-05-13T19:23:01.129Z,3.23
2019-05-13T19:25:24.949Z,3.30
2019-05-13T19:27:34.051Z,3.50
2019-05-13T19:29:43.110Z,3.13
2019-05-13T19:31:51.039Z,3.50
2019-05-13T19:34:01.454Z,3.20
2019-05-13T19:36:11.623Z,3.33
2019-05-13T19:38:21.056Z,3.40
2019-05-13T19:40:31.122Z,3.00
2019-05-13T19:42:37.171Z,2.80
2019-05-13T19:44:44.281Z,3.17
2019-05-13T19:46:52.219Z,2.90
2019-05-13T19:49:01.566Z,3.20
2019-05-13T19:51:07.420Z,3.43
2019-05-13T19:53:13.991Z,3.03
2019-05-13T19:55:23.603Z,3.03
2019-05-13T19:57:31.921Z,2.80
2019-05-13T19:59:38.483Z,3.00
2019-05-13T20:01:51.638Z,2.60
2019-05-13T20:04:02.437Z,2.93
2019-05-13T20:06:12.393Z,3.13
2019-05-13T20:08:21.080Z,3.17
2019-05-13T20:10:28.788Z,2.80
2019-05-13T20:12:35.608Z,3.20
2019-05-13T20:14:42.784Z,3.10
2019-05-13T20:16:49.551Z,2.83
2019-05-13T20:18:55.249Z,2.93
2019-05-13T20:21:03.472Z,2.20
2019-05-13T20:23:09.024Z,2.80
2019-05-13T20:25:14.424Z,3.20
2019-05-13T20:27:21.103Z,2.77
2019-05-13T20:29:27.559Z,2.70
2019-05-13T20:31:37.305Z,3.13
2019-05-13T20:33:44.043Z,2.50
2019-05-13T20:35:50.305Z,3.00
2019-05-13T20:37:58.584Z,2.97
2019-05-13T20:40:04.094Z,2.80
2019-05-13T20:42:12.441Z,3.10
2019-05-13T20:44:21.979Z,3.00
2019-05-13T20:46:26.685Z,3.20
2019-05-13T20:48:33.760Z,2.83
2019-05-13T20:50:41.386Z,3.10
2019-05-13T20:52:47.721Z,3.00
2019-05-13T20:54:53.875Z,3.10
2019-05-13T20:57:02.017Z,3.17
2019-05-13T20:59:07.974Z,2.90
2019-05-13T21:01:16.836Z,2.60
2019-05-13T21:03:25.984Z,2.30
2019-05-13T21:05:33.144Z,2.83
2019-05-13T21:07:41.710Z,2.90
2019-05-13T21:09:51.112Z,2.53
2019-05-13T21:11:56.683Z,2.37
2019-05-13T21:14:03.615Z,2.40
2019-05-13T21:16:11.650Z,2.60
2019-05-13T21:18:17.881Z,2.60
2019-05-13T21:20:25.962Z,2.87
2019-05-13T21:22:32.240Z,2.80
2019-05-13T21:24:41.274Z,2.83
2019-05-13T21:26:48.102Z,2.50
2019-05-13T21:28:55.873Z,2.70
2019-05-13T21:31:02.335Z,2.30
2019-05-13T21:33:11.312Z,2.63
2019-05-13T21:35:21.259Z,2.50
2019-05-13T21:37:28.491Z,2.53
2019-05-13T21:39:35.461Z,2.30
2019-05-13T21:41:41.459Z,2.37
2019-05-13T21:43:47.737Z,2.47
2019-05-13T21:45:54.750Z,2.60
2019-05-13T21:48:01.577Z,2.60
2019-05-13T21:50:06.788Z,2.63
2019-05-13T21:52:12.807Z,2.70
2019-05-13T21:54:20.118Z,2.60
2019-05-13T21:56:25.624Z,2.60
2019-05-13T21:58:32.264Z,2.53
2019-05-13T22:00:43.991Z,2.77
2019-05-13T22:02:51.587Z,2.60
2019-05-13T22:04:57.805Z,2.40
2019-05-13T22:07:04.343Z,2.80
2019-05-13T22:09:11.893Z,2.73
2019-05-13T22:11:22.248Z,2.93
2019-05-13T22:13:31.640Z,2.37
2019-05-13T22:15:37.551Z,2.83
2019-05-13T22:17:43.044Z,2.60
2019-05-13T22:19:51.271Z,2.50
2019-05-13T22:21:58.288Z,2.67
2019-05-13T22:24:06.292Z,2.80
2019-05-13T22:26:13.559Z,2.80
2019-05-13T22:28:22.130Z,2.67
2019-05-13T22:30:28.569Z,2.40
2019-05-13T22:32:33.602Z,2.40
2019-05-13T22:34:42.930Z,2.50
2019-05-13T22:36:51.714Z,2.77
2019-05-13T22:38:59.387Z,2.40
2019-05-13T22:41:07.087Z,2.63
2019-05-13T22:43:12.591Z,2.50
2019-05-13T22:45:21.953Z,2.80
2019-05-13T22:47:28.124Z,2.63
2019-05-13T22:49:34.271Z,2.80
2019-05-13T22:51:42.231Z,2.37
2019-05-13T22:53:49.732Z,3.00
2019-05-13T22:55:57.003Z,2.60
2019-05-13T22:58:03.069Z,2.87
2019-05-13T23:00:11.900Z,2.30
2019-05-13T23:02:17.969Z,2.63
2019-05-13T23:04:25.860Z,2.50
2019-05-13T23:06:32.903Z,2.30
2019-05-13T23:08:37.624Z,2.40
2019-05-13T23:10:43.740Z,2.57
2019-05-13T23:12:51.572Z,2.80
2019-05-13T23:14:58.367Z,2.10
2019-05-13T23:17:05.228Z,2.47
2019-05-13T23:19:11.444Z,2.40
2019-05-13T23:21:17.863Z,2.67
2019-05-13T23:23:23.096Z,2.80
2019-05-13T23:25:28.648Z,2.70
2019-05-13T23:27:34.229Z,2.43
2019-05-13T23:29:41.244Z,2.57
2019-05-13T23:31:47.368Z,2.60
2019-05-13T23:33:53.337Z,2.60
2019-05-13T23:36:01.513Z,2.67
2019-05-13T23:38:07.488Z,2.50
2019-05-13T23:40:12.932Z,2.27
2019-05-13T23:42:21.250Z,2.30
2019-05-13T23:44:28.259Z,2.90
2019-05-13T23:46:33.817Z,2.43
2019-05-13T23:48:44.531Z,2.40
2019-05-13T23:50:52.166Z,2.57
2019-05-13T23:52:57.064Z,2.50
2019-05-13T23:55:03.192Z,2.07
2019-05-13T23:57:11.690Z,2.40
2019-05-13T23:59:17.966Z,2.60
